createdAt,value
2023-05-20T00:01:55.593Z,14.12
2023-05-20T00:04:23.506Z,14.08
2023-05-20T00:06:51.119Z,14.08
2023-05-20T00:09:18.580Z,14.12
2023-05-20T00:11:46.778Z,14.14
2023-05-20T00:14:14.084Z,14.04
2023-05-20T00:16:41.974Z,14.05
2023-05-20T00:19:09.688Z,14.03
2023-05-20T00:21:37.021Z,14.03
2023-05-20T00:24:04.670Z,14.05
2023-05-20T00:26:31.894Z,14.08
2023-05-20T00:28:59.214Z,14.10
2023-05-20T00:31:26.629Z,14.09
2023-05-20T00:33:54.320Z,13.97
2023-05-20T00:36:21.586Z,13.85
2023-05-20T00:38:49.029Z,13.80
2023-05-20T00:41:16.528Z,13.75
2023-05-20T00:43:43.962Z,13.66
2023-05-20T00:46:11.830Z,13.61
2023-05-20T00:48:44.958Z,13.59
2023-05-20T00:51:14.741Z,13.56
2023-05-20T00:53:43.087Z,13.62
2023-05-20T00:56:11.097Z,13.67
2023-05-20T00:58:39.172Z,13.69
2023-05-20T01:04:05.255Z,13.65
2023-05-20T01:06:34.252Z,13.67
2023-05-20T01:09:01.590Z,13.72
2023-05-20T01:12:12.782Z,13.76
2023-05-20T01:14:51.214Z,13.79
2023-05-20T01:17:21.431Z,13.80
2023-05-20T01:19:49.421Z,13.82
2023-05-20T01:22:16.759Z,13.87
2023-05-20T01:24:46.166Z,13.86
2023-05-20T01:27:16.549Z,13.77
2023-05-20T01:29:44.674Z,13.79
2023-05-20T01:32:18.715Z,13.82
2023-05-20T01:34:48.262Z,13.88
2023-05-20T01:37:16.028Z,13.93
2023-05-20T01:39:43.797Z,13.97
2023-05-20T01:42:12.074Z,14.00
2023-05-20T01:44:39.952Z,14.02
2023-05-20T01:47:07.570Z,14.04
2023-05-20T01:49:34.938Z,14.05
2023-05-20T01:52:02.291Z,14.09
2023-05-20T01:54:29.502Z,14.07
2023-05-20T01:56:57.136Z,13.96
2023-05-20T01:59:24.590Z,13.97
2023-05-20T02:01:52.356Z,13.92
2023-05-20T02:04:19.850Z,13.91
2023-05-20T02:06:47.507Z,13.91
2023-05-20T02:09:15.228Z,13.93
2023-05-20T02:11:42.578Z,13.91
2023-05-20T02:14:09.901Z,13.89
2023-05-20T02:16:37.770Z,13.87
2023-05-20T02:19:05.081Z,13.96
2023-05-20T02:21:32.632Z,13.95
2023-05-20T02:24:00.114Z,13.99
2023-05-20T02:26:27.578Z,14.03
2023-05-20T02:28:54.888Z,14.09
2023-05-20T02:31:23.057Z,14.14
2023-05-20T02:33:50.350Z,14.21
2023-05-20T02:36:17.942Z,14.23
2023-05-20T02:38:45.499Z,14.24
2023-05-20T02:41:12.796Z,14.23
2023-05-20T02:43:41.182Z,14.19
2023-05-20T02:46:08.985Z,14.15
2023-05-20T02:48:36.335Z,14.11
2023-05-20T02:51:03.958Z,14.12
2023-05-20T02:53:31.199Z,14.09
2023-05-20T02:55:58.704Z,14.13
2023-05-20T02:58:28.232Z,14.15
2023-05-20T03:00:58.021Z,14.20
2023-05-20T03:03:27.805Z,14.17
2023-05-20T03:05:55.446Z,14.20
2023-05-20T03:08:24.236Z,14.23
2023-05-20T03:10:52.152Z,14.31
2023-05-20T03:13:19.418Z,14.37
2023-05-20T03:15:46.921Z,14.40
2023-05-20T03:18:14.412Z,14.43
2023-05-20T03:20:42.761Z,14.47
2023-05-20T03:23:11.849Z,14.46
2023-05-20T03:25:41.047Z,14.45
2023-05-20T03:28:08.357Z,14.40
2023-05-20T03:30:35.784Z,14.38
2023-05-20T03:33:04.162Z,14.44
2023-05-20T03:35:31.396Z,14.49
2023-05-20T03:38:00.080Z,14.55
2023-05-20T03:40:27.812Z,14.55
2023-05-20T03:42:55.174Z,14.50
2023-05-20T03:45:22.669Z,14.49
2023-05-20T03:47:50.047Z,14.57
2023-05-20T03:50:17.305Z,14.63
2023-05-20T03:52:45.965Z,14.68
2023-05-20T03:55:13.292Z,14.70
2023-05-20T03:57:40.829Z,14.70
2023-05-20T04:00:14.915Z,14.76
2023-05-20T04:02:42.317Z,14.82
2023-05-20T04:05:10.992Z,14.87
2023-05-20T04:07:38.575Z,14.92
2023-05-20T04:10:07.349Z,14.97
2023-05-20T04:12:36.826Z,15.04
2023-05-20T04:15:04.872Z,15.10
2023-05-20T04:17:32.531Z,15.13
2023-05-20T04:20:00.396Z,15.12
2023-05-20T04:22:28.584Z,15.18
2023-05-20T04:24:57.004Z,15.26
2023-05-20T04:27:24.928Z,15.34
2023-05-20T04:29:55.380Z,15.41
2023-05-20T04:32:22.750Z,15.47
2023-05-20T04:34:51.183Z,15.52
2023-05-20T04:37:18.585Z,15.55
2023-05-20T04:39:48.815Z,15.60
2023-05-20T04:42:21.067Z,15.63
2023-05-20T04:44:49.081Z,15.65
2023-05-20T04:47:16.370Z,15.56
2023-05-20T04:49:44.025Z,15.53
2023-05-20T04:52:11.641Z,15.52
2023-05-20T04:54:38.926Z,15.42
2023-05-20T04:57:07.007Z,15.26
2023-05-20T04:59:34.483Z,15.32
2023-05-20T05:02:01.847Z,15.38
2023-05-20T05:04:29.508Z,15.43
2023-05-20T05:06:56.842Z,15.36
2023-05-20T05:09:24.193Z,15.21
2023-05-20T05:11:51.754Z,15.21
2023-05-20T05:14:19.034Z,15.11
2023-05-20T05:16:46.964Z,15.08
2023-05-20T05:19:14.337Z,15.02
2023-05-20T05:21:41.745Z,14.89
2023-05-20T05:24:09.390Z,14.83
2023-05-20T05:26:36.868Z,14.83
2023-05-20T05:29:04.292Z,14.81
2023-05-20T05:31:31.689Z,14.91
2023-05-20T05:33:59.206Z,14.93
2023-05-20T05:36:26.944Z,14.96
2023-05-20T05:38:54.354Z,14.95
2023-05-20T05:41:22.417Z,15.01
2023-05-20T05:43:49.832Z,15.13
2023-05-20T05:46:17.199Z,15.23
2023-05-20T05:48:49.228Z,15.37
2023-05-20T05:51:17.153Z,15.50
2023-05-20T05:53:44.873Z,15.55
2023-05-20T05:56:12.334Z,15.61
2023-05-20T05:58:40.288Z,15.70
2023-05-20T06:01:07.750Z,15.77
2023-05-20T06:03:35.209Z,15.81
2023-05-20T06:06:02.722Z,15.89
2023-05-20T06:08:30.324Z,15.98
2023-05-20T06:10:58.084Z,16.07
2023-05-20T06:13:25.632Z,16.13
2023-05-20T06:15:54.161Z,16.18
2023-05-20T06:18:21.768Z,16.25
2023-05-20T06:20:56.204Z,16.33
2023-05-20T06:23:23.835Z,16.39
2023-05-20T06:25:51.852Z,16.41
2023-05-20T06:28:20.896Z,16.35
2023-05-20T06:30:48.214Z,16.36
2023-05-20T06:33:15.784Z,16.22
2023-05-20T06:35:43.160Z,16.19
2023-05-20T06:38:10.470Z,16.20
2023-05-20T06:40:38.469Z,16.16
2023-05-20T06:43:05.745Z,16.32
2023-05-20T06:45:33.215Z,16.43
2023-05-20T06:48:01.054Z,16.51
2023-05-20T06:50:31.378Z,16.63
2023-05-20T06:52:58.860Z,16.80
2023-05-20T06:55:26.925Z,16.94
2023-05-20T06:57:54.424Z,16.99
2023-05-20T07:00:21.912Z,17.05
2023-05-20T07:02:49.815Z,17.16
2023-05-20T07:05:17.557Z,17.16
2023-05-20T07:07:45.171Z,17.24
2023-05-20T07:10:13.086Z,17.34
2023-05-20T07:12:41.166Z,17.39
2023-05-20T07:15:09.467Z,17.29
2023-05-20T07:17:37.666Z,17.15
2023-05-20T07:20:05.426Z,17.12
2023-05-20T07:22:32.831Z,17.15
2023-05-20T07:25:01.692Z,17.20
2023-05-20T07:27:29.135Z,17.33
2023-05-20T07:29:57.096Z,17.44
2023-05-20T07:32:24.630Z,17.56
2023-05-20T07:34:52.496Z,17.59
2023-05-20T07:37:19.842Z,17.64
2023-05-20T07:39:47.552Z,17.66
2023-05-20T07:42:14.893Z,17.70
2023-05-20T07:44:42.193Z,17.71
2023-05-20T07:47:21.414Z,17.59
2023-05-20T07:49:48.998Z,17.67
2023-05-20T07:52:17.086Z,17.65
2023-05-20T07:54:44.361Z,17.58
2023-05-20T07:57:11.657Z,17.62
2023-05-20T07:59:39.169Z,17.74
2023-05-20T08:02:07.304Z,17.78
2023-05-20T08:04:35.891Z,17.82
2023-05-20T08:07:03.496Z,17.61
2023-05-20T08:09:32.337Z,17.43
2023-05-20T08:11:59.825Z,17.51
2023-05-20T08:14:27.278Z,17.49
2023-05-20T08:16:55.133Z,17.57
2023-05-20T08:19:22.710Z,17.56
2023-05-20T08:21:50.595Z,17.46
2023-05-20T08:24:17.875Z,17.54
2023-05-20T08:26:45.314Z,17.66
2023-05-20T08:29:17.993Z,17.53
2023-05-20T08:47:31.326Z,17.89
2023-05-20T08:50:05.443Z,17.72
2023-05-20T08:52:38.420Z,17.75
2023-05-20T08:55:11.474Z,17.75
2023-05-20T08:57:49.955Z,17.67
2023-05-20T09:00:21.191Z,17.76
2023-05-20T09:02:53.424Z,17.84
2023-05-20T09:05:27.558Z,17.91
2023-05-20T09:08:20.946Z,17.90
2023-05-20T09:10:50.878Z,18.02
2023-05-20T09:13:26.301Z,18.08
2023-05-20T09:15:57.137Z,18.23
2023-05-20T09:22:33.241Z,18.16
2023-05-20T09:25:06.379Z,18.21
2023-05-20T09:27:37.509Z,18.36
2023-05-20T09:30:15.764Z,18.47
2023-05-20T09:33:10.272Z,18.60
2023-05-20T09:35:44.302Z,18.75
2023-05-20T09:38:15.688Z,18.73
2023-05-20T09:40:48.765Z,18.68
2023-05-20T09:43:16.799Z,18.80
2023-05-20T09:45:44.718Z,18.92
2023-05-20T09:48:13.515Z,19.01
2023-05-20T09:50:43.282Z,19.10
2023-05-20T09:53:13.104Z,19.03
2023-05-20T09:55:41.292Z,18.89
2023-05-20T09:58:15.991Z,18.98
2023-05-20T10:00:43.850Z,19.11
2023-05-20T10:03:11.298Z,19.28
2023-05-20T10:05:44.799Z,19.36
2023-05-20T10:08:36.085Z,19.36
2023-05-20T10:11:13.260Z,19.45
2023-05-20T10:13:55.525Z,19.56
2023-05-20T10:16:30.804Z,19.64
2023-05-20T10:19:29.048Z,19.60
2023-05-20T10:22:09.159Z,19.58
2023-05-20T10:24:39.142Z,19.70
2023-05-20T10:27:10.169Z,19.80
2023-05-20T10:29:56.207Z,19.95
2023-05-20T10:32:31.992Z,19.96
2023-05-20T10:35:01.623Z,19.95
2023-05-20T10:37:31.719Z,20.07
2023-05-20T10:40:10.174Z,20.22
2023-05-20T10:42:37.715Z,20.28
2023-05-20T10:45:05.902Z,20.11
2023-05-20T10:47:33.564Z,20.24
2023-05-20T10:50:02.703Z,20.24
2023-05-20T10:52:34.996Z,20.33
2023-05-20T10:55:02.506Z,20.34
2023-05-20T10:57:30.374Z,20.28
2023-05-20T10:59:58.111Z,20.37
2023-05-20T11:02:29.093Z,20.38
2023-05-20T11:05:00.047Z,20.44
2023-05-20T11:07:31.395Z,20.52
2023-05-20T11:10:02.321Z,20.50
2023-05-20T11:12:30.563Z,20.44
2023-05-20T11:14:57.879Z,20.52
2023-05-20T11:17:25.267Z,20.46
2023-05-20T11:19:53.931Z,20.50
2023-05-20T11:22:21.234Z,20.38
2023-05-20T11:24:48.857Z,20.43
2023-05-20T11:27:16.484Z,20.47
2023-05-20T11:29:44.135Z,20.66
2023-05-20T11:32:13.214Z,20.76
2023-05-20T11:34:40.580Z,20.95
2023-05-20T11:37:11.712Z,21.19
2023-05-20T11:39:39.982Z,21.50
2023-05-20T11:42:07.530Z,21.85
2023-05-20T11:44:34.961Z,22.19
2023-05-20T11:47:03.809Z,22.46
2023-05-20T11:49:31.725Z,22.54
2023-05-20T11:51:59.389Z,22.42
2023-05-20T11:54:26.756Z,22.02
2023-05-20T11:56:56.269Z,21.65
2023-05-20T11:59:25.414Z,21.36
2023-05-20T12:01:52.999Z,21.08
2023-05-20T12:04:20.575Z,21.01
2023-05-20T12:06:48.044Z,21.29
2023-05-20T12:09:15.670Z,21.56
2023-05-20T12:11:44.973Z,21.82
2023-05-20T12:14:12.213Z,22.19
2023-05-20T12:16:39.628Z,22.53
2023-05-20T12:19:09.123Z,22.77
2023-05-20T12:21:36.992Z,22.71
2023-05-20T12:24:07.511Z,22.58
2023-05-20T12:26:35.987Z,22.54
2023-05-20T12:29:03.424Z,22.60
2023-05-20T12:31:33.827Z,22.67
2023-05-20T12:34:02.557Z,22.73
2023-05-20T12:36:30.025Z,22.69
2023-05-20T12:38:57.429Z,22.70
2023-05-20T12:41:25.122Z,22.69
2023-05-20T12:43:52.489Z,22.69
2023-05-20T12:46:19.928Z,22.73
2023-05-20T12:48:47.606Z,22.79
2023-05-20T12:51:14.920Z,22.73
2023-05-20T12:53:42.484Z,22.76
2023-05-20T12:56:09.806Z,22.86
2023-05-20T12:58:37.184Z,22.87
2023-05-20T13:01:04.906Z,22.92
2023-05-20T13:03:32.470Z,23.02
2023-05-20T13:05:59.999Z,23.04
2023-05-20T13:08:28.823Z,23.13
2023-05-20T13:10:56.811Z,23.22
2023-05-20T13:13:25.154Z,23.31
2023-05-20T13:15:52.717Z,23.39
2023-05-20T13:18:20.465Z,23.48
2023-05-20T13:20:47.703Z,23.55
2023-05-20T13:23:15.365Z,23.61
2023-05-20T13:25:43.337Z,23.63
2023-05-20T13:28:11.234Z,23.65
2023-05-20T13:30:39.211Z,23.57
2023-05-20T13:33:07.345Z,23.57
2023-05-20T13:35:34.830Z,23.60
2023-05-20T13:38:02.268Z,23.60
2023-05-20T13:40:29.762Z,23.71
2023-05-20T13:42:57.305Z,23.85
2023-05-20T13:45:24.603Z,23.99
2023-05-20T13:47:52.106Z,24.10
2023-05-20T13:50:20.151Z,24.16
2023-05-20T13:52:47.830Z,24.14
2023-05-20T13:55:15.173Z,24.06
2023-05-20T13:57:43.164Z,24.13
2023-05-20T14:00:11.255Z,24.24
2023-05-20T14:02:38.671Z,24.40
2023-05-20T14:05:07.741Z,24.46
2023-05-20T14:07:35.338Z,24.48
2023-05-20T14:10:03.115Z,24.53
2023-05-20T14:12:37.031Z,24.58
2023-05-20T14:15:07.364Z,24.50
2023-05-20T14:17:36.349Z,24.46
2023-05-20T14:20:03.813Z,24.47
2023-05-20T14:22:31.244Z,24.57
2023-05-20T14:24:59.033Z,24.62
2023-05-20T14:27:26.448Z,24.66
2023-05-20T14:29:53.761Z,24.63
2023-05-20T14:32:21.606Z,24.60
2023-05-20T14:34:49.320Z,24.67
2023-05-20T14:37:17.258Z,24.76
2023-05-20T14:39:44.674Z,24.90
2023-05-20T14:42:12.909Z,24.97
2023-05-20T14:44:40.658Z,24.95
2023-05-20T14:47:08.452Z,24.89
2023-05-20T14:49:38.604Z,24.83
2023-05-20T14:52:08.149Z,24.81
2023-05-20T14:54:35.543Z,24.83
2023-05-20T14:57:02.939Z,24.79
2023-05-20T14:59:30.305Z,24.72
2023-05-20T15:01:58.116Z,24.74
2023-05-20T15:04:25.524Z,24.69
2023-05-20T15:06:54.922Z,24.65
2023-05-20T15:09:22.303Z,24.62
2023-05-20T15:11:50.589Z,24.54
2023-05-20T15:14:19.051Z,24.52
2023-05-20T15:16:46.853Z,24.54
2023-05-20T15:19:14.275Z,24.58
2023-05-20T15:21:42.047Z,24.43
2023-05-20T15:24:09.403Z,24.32
2023-05-20T15:26:37.177Z,24.28
2023-05-20T15:29:04.688Z,24.28
2023-05-20T15:31:32.147Z,24.26
2023-05-20T15:33:59.539Z,24.23
2023-05-20T15:36:27.302Z,24.23
2023-05-20T15:38:54.821Z,24.26
2023-05-20T15:41:24.039Z,24.28
2023-05-20T15:43:51.685Z,24.23
2023-05-20T15:46:19.184Z,24.14
2023-05-20T15:48:46.770Z,24.09
2023-05-20T15:51:15.409Z,24.03
2023-05-20T15:53:42.738Z,23.96
2023-05-20T15:56:12.741Z,23.85
2023-05-20T15:58:40.468Z,23.78
2023-05-20T16:01:08.921Z,23.76
2023-05-20T16:03:36.662Z,23.74
2023-05-20T16:06:04.213Z,23.61
2023-05-20T16:08:31.583Z,23.41
2023-05-20T16:10:59.283Z,23.28
2023-05-20T16:13:27.211Z,23.22
2023-05-20T16:15:58.115Z,23.19
2023-05-20T16:18:31.480Z,23.03
2023-05-20T16:20:58.795Z,22.89
2023-05-20T16:23:26.175Z,22.79
2023-05-20T16:25:53.960Z,22.67
2023-05-20T16:28:21.471Z,22.60
2023-05-20T16:30:48.727Z,22.53
2023-05-20T16:33:18.152Z,22.47
2023-05-20T16:35:45.538Z,22.40
2023-05-20T16:38:12.951Z,22.32
2023-05-20T16:40:41.004Z,22.26
2023-05-20T16:43:08.411Z,22.21
2023-05-20T16:45:37.285Z,22.10
2023-05-20T16:48:05.291Z,22.03
2023-05-20T16:50:32.932Z,21.97
2023-05-20T16:53:00.621Z,21.85
2023-05-20T16:55:28.338Z,21.82
2023-05-20T16:57:55.731Z,21.74
2023-05-20T17:00:23.081Z,21.66
2023-05-20T17:02:50.570Z,21.62
2023-05-20T17:05:18.050Z,21.56
2023-05-20T17:07:45.559Z,21.48
2023-05-20T17:10:13.312Z,21.50
2023-05-20T17:12:41.020Z,21.86
2023-05-20T17:15:08.995Z,22.17
2023-05-20T17:17:37.336Z,22.36
2023-05-20T17:20:05.907Z,22.53
2023-05-20T17:22:33.371Z,22.66
2023-05-20T17:25:00.913Z,22.77
2023-05-20T17:27:28.320Z,22.72
2023-05-20T17:29:55.771Z,22.39
2023-05-20T17:32:24.311Z,22.06
2023-05-20T17:34:52.214Z,21.80
2023-05-20T17:37:20.006Z,21.58
2023-05-20T17:39:48.072Z,21.49
2023-05-20T17:42:15.564Z,21.76
2023-05-20T17:44:43.363Z,22.05
2023-05-20T17:47:10.883Z,22.25
2023-05-20T17:49:38.448Z,22.37
2023-05-20T17:52:06.378Z,22.46
2023-05-20T17:54:34.458Z,22.51
2023-05-20T17:57:02.167Z,22.53
2023-05-20T17:59:29.621Z,22.56
2023-05-20T18:01:57.261Z,22.55
2023-05-20T18:04:24.664Z,22.33
2023-05-20T18:06:52.023Z,21.71
2023-05-20T18:09:20.513Z,21.26
2023-05-20T18:11:47.861Z,20.90
2023-05-20T18:14:15.306Z,20.61
2023-05-20T18:16:43.146Z,20.39
2023-05-20T18:19:10.410Z,20.18
2023-05-20T18:21:38.006Z,20.04
2023-05-20T18:24:05.589Z,19.83
2023-05-20T18:26:33.000Z,19.65
2023-05-20T18:29:00.293Z,19.49
2023-05-20T18:31:28.189Z,19.37
2023-05-20T18:33:55.662Z,19.24
2023-05-20T18:36:23.034Z,19.10
2023-05-20T18:38:50.955Z,19.00
2023-05-20T18:41:18.799Z,18.88
2023-05-20T18:43:46.207Z,18.78
2023-05-20T18:46:14.081Z,18.69
2023-05-20T18:48:41.517Z,18.60
2023-05-20T18:51:08.803Z,18.51
2023-05-20T18:53:38.957Z,18.44
2023-05-20T18:56:06.939Z,18.37
2023-05-20T18:58:34.091Z,18.30
2023-05-20T19:01:02.074Z,18.19
2023-05-20T19:03:29.562Z,18.10
2023-05-20T19:05:56.986Z,18.03
2023-05-20T19:08:25.178Z,17.98
2023-05-20T19:10:53.610Z,17.93
2023-05-20T19:13:22.268Z,18.00
2023-05-20T19:15:49.725Z,18.42
2023-05-20T19:18:17.294Z,18.82
2023-05-20T19:20:44.567Z,19.10
2023-05-20T19:23:12.194Z,19.24
2023-05-20T19:25:39.592Z,18.92
2023-05-20T19:28:07.101Z,18.61
2023-05-20T19:30:39.800Z,18.38
2023-05-20T19:33:07.363Z,18.21
2023-05-20T19:35:35.186Z,18.09
2023-05-20T19:38:05.576Z,17.98
2023-05-20T19:40:33.730Z,17.99
2023-05-20T19:43:01.066Z,18.35
2023-05-20T19:45:28.672Z,18.72
2023-05-20T19:47:57.711Z,18.98
2023-05-20T19:50:25.412Z,19.20
2023-05-20T19:52:53.408Z,19.35
2023-05-20T19:55:21.477Z,19.25
2023-05-20T19:57:54.277Z,18.83
2023-05-20T20:00:22.094Z,18.48
2023-05-20T20:02:50.395Z,18.20
2023-05-20T20:05:18.355Z,17.97
2023-05-20T20:07:46.466Z,17.90
2023-05-20T20:10:14.117Z,18.21
2023-05-20T20:12:41.676Z,18.52
2023-05-20T20:15:10.396Z,18.76
2023-05-20T20:17:38.553Z,18.92
2023-05-20T20:20:11.189Z,19.03
2023-05-20T20:22:38.618Z,19.14
2023-05-20T20:25:06.507Z,19.23
2023-05-20T20:27:34.157Z,19.29
2023-05-20T20:30:01.522Z,19.33
2023-05-20T20:32:29.049Z,19.37
2023-05-20T20:34:56.749Z,19.41
2023-05-20T20:37:27.346Z,19.44
2023-05-20T20:39:57.696Z,19.43
2023-05-20T20:42:25.337Z,19.47
2023-05-20T20:44:53.453Z,19.50
2023-05-20T20:47:21.515Z,19.51
2023-05-20T20:49:49.195Z,19.33
2023-05-20T20:52:16.616Z,18.82
2023-05-20T20:54:44.459Z,18.36
2023-05-20T20:57:11.986Z,18.04
2023-05-20T20:59:40.270Z,18.21
2023-05-20T21:02:07.695Z,18.45
2023-05-20T21:04:35.305Z,18.62
2023-05-20T21:07:03.352Z,18.73
2023-05-20T21:09:31.083Z,18.77
2023-05-20T21:12:00.968Z,18.78
2023-05-20T21:14:28.274Z,18.79
2023-05-20T21:16:56.043Z,18.80
2023-05-20T21:19:23.875Z,18.81
2023-05-20T21:21:51.332Z,18.82
2023-05-20T21:24:20.602Z,18.76
2023-05-20T21:26:48.164Z,18.71
2023-05-20T21:29:15.456Z,18.67
2023-05-20T21:31:43.248Z,18.64
2023-05-20T21:34:11.318Z,18.59
2023-05-20T21:36:38.606Z,18.56
2023-05-20T21:39:06.926Z,18.54
2023-05-20T21:41:34.832Z,18.52
2023-05-20T21:44:02.122Z,18.44
2023-05-20T21:46:29.389Z,18.37
2023-05-20T21:48:57.253Z,18.35
2023-05-20T21:51:24.659Z,18.22
2023-05-20T21:53:52.240Z,18.19
2023-05-20T21:56:19.899Z,18.22
2023-05-20T21:58:47.095Z,18.24
2023-05-20T22:01:14.438Z,18.25
2023-05-20T22:03:42.083Z,18.30
2023-05-20T22:06:09.625Z,18.28
2023-05-20T22:08:37.041Z,18.28
2023-05-20T22:11:05.919Z,18.30
2023-05-20T22:13:34.200Z,18.32
2023-05-20T22:16:02.715Z,18.37
2023-05-20T22:18:30.436Z,18.21
2023-05-20T22:21:00.605Z,18.32
2023-05-20T22:23:29.277Z,18.37
2023-05-20T22:25:57.259Z,18.39
2023-05-20T22:28:26.568Z,18.38
2023-05-20T22:30:54.045Z,18.41
2023-05-20T22:33:23.262Z,18.39
2023-05-20T22:35:51.724Z,18.34
2023-05-20T22:38:19.034Z,18.33
2023-05-20T22:40:46.628Z,18.32
2023-05-20T22:43:14.411Z,18.32
2023-05-20T22:45:41.996Z,18.33
2023-05-20T22:48:09.323Z,18.34
2023-05-20T22:50:36.746Z,18.36
2023-05-20T22:53:04.014Z,18.36
2023-05-20T22:55:31.431Z,18.36
2023-05-20T22:57:58.799Z,18.31
2023-05-20T23:00:26.151Z,18.29
2023-05-20T23:02:53.555Z,18.13
2023-05-20T23:05:21.511Z,18.09
2023-05-20T23:07:49.096Z,18.10
2023-05-20T23:10:16.810Z,18.08
2023-05-20T23:12:44.025Z,18.11
2023-05-20T23:15:11.697Z,18.09
2023-05-20T23:17:39.994Z,18.00
2023-05-20T23:20:19.492Z,18.00
2023-05-20T23:22:47.218Z,17.94
2023-05-20T23:25:14.694Z,17.96
2023-05-20T23:27:41.847Z,18.00
2023-05-20T23:30:09.745Z,18.03
2023-05-20T23:32:37.497Z,18.04
2023-05-20T23:35:05.672Z,18.09
2023-05-20T23:37:34.766Z,18.12
2023-05-20T23:40:01.960Z,18.17
2023-05-20T23:42:29.524Z,18.16
2023-05-20T23:44:56.698Z,18.20
2023-05-20T23:47:26.412Z,18.24
2023-05-20T23:49:56.646Z,18.27
2023-05-20T23:52:25.223Z,18.32
2023-05-20T23:54:53.068Z,18.35
2023-05-20T23:57:21.409Z,18.43
2023-05-20T23:59:51.879Z,18.46
